sensor_id;sensor_type;location;lat;lon;timestamp;P1;durP1;ratioP1;P2;durP2;ratioP2
47539;SDS011;33280;52.152;21.052;2023-08-08T00:25:07;3.83;;;1.90;;
47539;SDS011;33280;52.152;21.052;2023-08-08T00:31:47;3.47;;;1.50;;
47539;SDS011;33280;52.152;21.052;2023-08-08T00:38:06;3.83;;;2.10;;
47539;SDS011;33280;52.152;21.052;2023-08-08T00:40:58;5.30;;;1.83;;
47539;SDS011;33280;52.152;21.052;2023-08-08T00:43:46;6.03;;;1.90;;
47539;SDS011;33280;52.152;21.052;2023-08-08T00:46:45;6.17;;;1.80;;
47539;SDS011;33280;52.152;21.052;2023-08-08T00:49:16;6.40;;;1.90;;
47539;SDS011;33280;52.152;21.052;2023-08-08T00:52:35;5.37;;;2.23;;
47539;SDS011;33280;52.152;21.052;2023-08-08T00:55:38;6.17;;;1.80;;
47539;SDS011;33280;52.152;21.052;2023-08-08T00:58:35;7.37;;;1.67;;
47539;SDS011;33280;52.152;21.052;2023-08-08T01:04:46;3.27;;;1.70;;
47539;SDS011;33280;52.152;21.052;2023-08-08T01:08:03;4.93;;;1.83;;
47539;SDS011;33280;52.152;21.052;2023-08-08T01:10:58;6.60;;;1.93;;
47539;SDS011;33280;52.152;21.052;2023-08-08T01:13:54;6.83;;;1.70;;
47539;SDS011;33280;52.152;21.052;2023-08-08T01:16:45;8.57;;;2.00;;
47539;SDS011;33280;52.152;21.052;2023-08-08T01:19:47;4.53;;;1.70;;
47539;SDS011;33280;52.152;21.052;2023-08-08T01:26:37;7.80;;;1.67;;
47539;SDS011;33280;52.152;21.052;2023-08-08T01:29:44;6.07;;;1.70;;
47539;SDS011;33280;52.152;21.052;2023-08-08T01:33:01;6.17;;;1.73;;
47539;SDS011;33280;52.152;21.052;2023-08-08T01:35:55;5.97;;;2.13;;
47539;SDS011;33280;52.152;21.052;2023-08-08T01:38:55;5.13;;;1.60;;
47539;SDS011;33280;52.152;21.052;2023-08-08T01:41:53;4.67;;;1.90;;
47539;SDS011;33280;52.152;21.052;2023-08-08T01:44:43;5.07;;;1.90;;
47539;SDS011;33280;52.152;21.052;2023-08-08T01:48:20;4.97;;;2.10;;
47539;SDS011;33280;52.152;21.052;2023-08-08T01:51:16;4.87;;;1.63;;
47539;SDS011;33280;52.152;21.052;2023-08-08T01:54:01;5.97;;;1.73;;
47539;SDS011;33280;52.152;21.052;2023-08-08T01:56:33;4.77;;;1.63;;
47539;SDS011;33280;52.152;21.052;2023-08-08T01:59:54;5.13;;;1.77;;
47539;SDS011;33280;52.152;21.052;2023-08-08T02:02:40;4.47;;;1.93;;
47539;SDS011;33280;52.152;21.052;2023-08-08T02:05:35;4.70;;;1.93;;
47539;SDS011;33280;52.152;21.052;2023-08-08T02:08:07;8.97;;;1.87;;
47539;SDS011;33280;52.152;21.052;2023-08-08T02:10:57;3.93;;;1.43;;
47539;SDS011;33280;52.152;21.052;2023-08-08T02:13:45;4.73;;;1.90;;
47539;SDS011;33280;52.152;21.052;2023-08-08T02:20:18;4.23;;;1.93;;
47539;SDS011;33280;52.152;21.052;2023-08-08T02:23:01;3.70;;;1.90;;
47539;SDS011;33280;52.152;21.052;2023-08-08T02:26:13;4.33;;;1.83;;
47539;SDS011;33280;52.152;21.052;2023-08-08T02:29:01;6.00;;;1.80;;
47539;SDS011;33280;52.152;21.052;2023-08-08T02:31:41;4.83;;;1.87;;
47539;SDS011;33280;52.152;21.052;2023-08-08T02:38:14;4.77;;;1.87;;
47539;SDS011;33280;52.152;21.052;2023-08-08T02:41:32;5.90;;;1.90;;
47539;SDS011;33280;52.152;21.052;2023-08-08T02:44:02;5.37;;;1.83;;
47539;SDS011;33280;52.152;21.052;2023-08-08T02:46:44;5.97;;;1.90;;
47539;SDS011;33280;52.152;21.052;2023-08-08T02:49:35;6.30;;;1.80;;
47539;SDS011;33280;52.152;21.052;2023-08-08T02:52:26;6.33;;;2.00;;
47539;SDS011;33280;52.152;21.052;2023-08-08T02:55:27;7.80;;;2.10;;
47539;SDS011;33280;52.152;21.052;2023-08-08T02:58:19;4.87;;;1.67;;
47539;SDS011;33280;52.152;21.052;2023-08-08T03:00:56;9.17;;;2.00;;
47539;SDS011;33280;52.152;21.052;2023-08-08T03:03:24;6.43;;;2.10;;
47539;SDS011;33280;52.152;21.052;2023-08-08T03:06:00;8.13;;;2.07;;
47539;SDS011;33280;52.152;21.052;2023-08-08T03:09:16;4.83;;;1.70;;
47539;SDS011;33280;52.152;21.052;2023-08-08T03:12:12;8.67;;;2.07;;
47539;SDS011;33280;52.152;21.052;2023-08-08T03:14:40;7.10;;;2.03;;
47539;SDS011;33280;52.152;21.052;2023-08-08T03:17:06;5.10;;;1.80;;
47539;SDS011;33280;52.152;21.052;2023-08-08T03:19:32;3.53;;;1.73;;
47539;SDS011;33280;52.152;21.052;2023-08-08T03:22:03;5.53;;;1.70;;
47539;SDS011;33280;52.152;21.052;2023-08-08T03:24:29;4.53;;;2.00;;
47539;SDS011;33280;52.152;21.052;2023-08-08T03:27:04;5.20;;;1.80;;
47539;SDS011;33280;52.152;21.052;2023-08-08T03:29:34;7.37;;;1.87;;
47539;SDS011;33280;52.152;21.052;2023-08-08T03:32:09;5.67;;;2.03;;
47539;SDS011;33280;52.152;21.052;2023-08-08T03:34:35;3.63;;;1.73;;
47539;SDS011;33280;52.152;21.052;2023-08-08T03:37:03;5.30;;;1.90;;
47539;SDS011;33280;52.152;21.052;2023-08-08T03:39:33;8.40;;;1.90;;
47539;SDS011;33280;52.152;21.052;2023-08-08T03:42:03;5.67;;;1.60;;
47539;SDS011;33280;52.152;21.052;2023-08-08T03:44:35;9.30;;;1.93;;
47539;SDS011;33280;52.152;21.052;2023-08-08T03:47:10;4.57;;;1.90;;
47539;SDS011;33280;52.152;21.052;2023-08-08T03:49:45;6.93;;;2.00;;
47539;SDS011;33280;52.152;21.052;2023-08-08T03:52:17;5.77;;;2.03;;
47539;SDS011;33280;52.152;21.052;2023-08-08T03:54:46;6.10;;;2.10;;
47539;SDS011;33280;52.152;21.052;2023-08-08T03:57:20;5.13;;;1.87;;
47539;SDS011;33280;52.152;21.052;2023-08-08T03:59:50;5.40;;;1.90;;
47539;SDS011;33280;52.152;21.052;2023-08-08T04:02:27;6.20;;;1.90;;
47539;SDS011;33280;52.152;21.052;2023-08-08T04:04:58;6.00;;;2.03;;
47539;SDS011;33280;52.152;21.052;2023-08-08T04:07:30;6.50;;;2.27;;
47539;SDS011;33280;52.152;21.052;2023-08-08T04:09:59;6.23;;;1.60;;
47539;SDS011;33280;52.152;21.052;2023-08-08T04:12:30;5.33;;;2.23;;
47539;SDS011;33280;52.152;21.052;2023-08-08T04:15:10;5.67;;;1.93;;
47539;SDS011;33280;52.152;21.052;2023-08-08T04:18:08;5.27;;;1.87;;
47539;SDS011;33280;52.152;21.052;2023-08-08T04:20:45;6.53;;;1.67;;
47539;SDS011;33280;52.152;21.052;2023-08-08T04:23:17;4.90;;;1.80;;
47539;SDS011;33280;52.152;21.052;2023-08-08T04:25:44;8.00;;;2.47;;
47539;SDS011;33280;52.152;21.052;2023-08-08T04:28:20;5.67;;;1.93;;
47539;SDS011;33280;52.152;21.052;2023-08-08T04:30:53;3.87;;;2.00;;
47539;SDS011;33280;52.152;21.052;2023-08-08T04:33:27;6.47;;;1.80;;
47539;SDS011;33280;52.152;21.052;2023-08-08T04:36:03;4.23;;;1.73;;
47539;SDS011;33280;52.152;21.052;2023-08-08T04:38:34;4.33;;;1.83;;
47539;SDS011;33280;52.152;21.052;2023-08-08T04:41:01;5.50;;;1.77;;
47539;SDS011;33280;52.152;21.052;2023-08-08T04:43:31;6.17;;;2.10;;
47539;SDS011;33280;52.152;21.052;2023-08-08T04:46:02;6.40;;;1.70;;
47539;SDS011;33280;52.152;21.052;2023-08-08T04:48:32;5.73;;;1.83;;
47539;SDS011;33280;52.152;21.052;2023-08-08T04:51:02;5.07;;;2.10;;
47539;SDS011;33280;52.152;21.052;2023-08-08T04:53:34;4.97;;;1.80;;
47539;SDS011;33280;52.152;21.052;2023-08-08T04:56:07;4.77;;;1.70;;
47539;SDS011;33280;52.152;21.052;2023-08-08T04:58:37;7.33;;;2.00;;
47539;SDS011;33280;52.152;21.052;2023-08-08T05:01:09;5.07;;;1.80;;
47539;SDS011;33280;52.152;21.052;2023-08-08T05:03:41;5.50;;;2.00;;
47539;SDS011;33280;52.152;21.052;2023-08-08T05:06:16;5.80;;;1.80;;
47539;SDS011;33280;52.152;21.052;2023-08-08T05:08:59;4.37;;;1.50;;
47539;SDS011;33280;52.152;21.052;2023-08-08T05:11:29;4.93;;;1.90;;
47539;SDS011;33280;52.152;21.052;2023-08-08T05:14:02;3.20;;;1.63;;
47539;SDS011;33280;52.152;21.052;2023-08-08T05:16:37;4.73;;;1.70;;
47539;SDS011;33280;52.152;21.052;2023-08-08T05:19:11;5.87;;;1.93;;
47539;SDS011;33280;52.152;21.052;2023-08-08T05:21:41;4.77;;;1.87;;
47539;SDS011;33280;52.152;21.052;2023-08-08T05:24:15;7.10;;;1.60;;
47539;SDS011;33280;52.152;21.052;2023-08-08T05:26:46;8.83;;;2.30;;
47539;SDS011;33280;52.152;21.052;2023-08-08T05:29:16;4.47;;;1.80;;
47539;SDS011;33280;52.152;21.052;2023-08-08T05:31:51;5.77;;;1.80;;
47539;SDS011;33280;52.152;21.052;2023-08-08T05:34:50;6.73;;;1.90;;
47539;SDS011;33280;52.152;21.052;2023-08-08T05:37:19;4.77;;;1.83;;
47539;SDS011;33280;52.152;21.052;2023-08-08T05:39:48;6.60;;;1.90;;
47539;SDS011;33280;52.152;21.052;2023-08-08T05:42:20;3.80;;;1.67;;
47539;SDS011;33280;52.152;21.052;2023-08-08T05:44:50;5.87;;;1.87;;
47539;SDS011;33280;52.152;21.052;2023-08-08T05:47:17;5.67;;;1.80;;
47539;SDS011;33280;52.152;21.052;2023-08-08T05:49:44;8.33;;;1.90;;
47539;SDS011;33280;52.152;21.052;2023-08-08T05:52:24;5.00;;;1.77;;
47539;SDS011;33280;52.152;21.052;2023-08-08T05:54:51;4.67;;;1.73;;
47539;SDS011;33280;52.152;21.052;2023-08-08T05:57:21;4.80;;;1.80;;
47539;SDS011;33280;52.152;21.052;2023-08-08T05:59:48;8.87;;;1.90;;
47539;SDS011;33280;52.152;21.052;2023-08-08T06:02:16;6.47;;;2.23;;
47539;SDS011;33280;52.152;21.052;2023-08-08T06:04:53;6.10;;;1.77;;
47539;SDS011;33280;52.152;21.052;2023-08-08T06:07:27;4.47;;;1.60;;
47539;SDS011;33280;52.152;21.052;2023-08-08T06:09:59;9.13;;;2.20;;
47539;SDS011;33280;52.152;21.052;2023-08-08T07:00:38;7.20;;;1.90;;
47539;SDS011;33280;52.152;21.052;2023-08-08T07:03:11;6.63;;;2.30;;
47539;SDS011;33280;52.152;21.052;2023-08-08T07:05:38;7.67;;;2.27;;
47539;SDS011;33280;52.152;21.052;2023-08-08T07:08:08;4.03;;;1.87;;
47539;SDS011;33280;52.152;21.052;2023-08-08T07:10:35;3.37;;;1.80;;
47539;SDS011;33280;52.152;21.052;2023-08-08T07:13:05;5.10;;;1.67;;
47539;SDS011;33280;52.152;21.052;2023-08-08T07:15:35;4.87;;;1.67;;
47539;SDS011;33280;52.152;21.052;2023-08-08T07:18:08;4.37;;;1.63;;
47539;SDS011;33280;52.152;21.052;2023-08-08T07:20:35;4.10;;;1.77;;
47539;SDS011;33280;52.152;21.052;2023-08-08T07:23:02;7.63;;;1.90;;
47539;SDS011;33280;52.152;21.052;2023-08-08T07:25:30;6.03;;;1.70;;
47539;SDS011;33280;52.152;21.052;2023-08-08T07:27:57;9.77;;;1.97;;
47539;SDS011;33280;52.152;21.052;2023-08-08T07:30:24;5.93;;;1.80;;
47539;SDS011;33280;52.152;21.052;2023-08-08T07:32:52;7.17;;;1.70;;
47539;SDS011;33280;52.152;21.052;2023-08-08T07:35:20;7.27;;;2.57;;
47539;SDS011;33280;52.152;21.052;2023-08-08T07:37:47;5.23;;;1.70;;
47539;SDS011;33280;52.152;21.052;2023-08-08T07:40:15;4.83;;;1.60;;
47539;SDS011;33280;52.152;21.052;2023-08-08T07:42:47;6.50;;;1.73;;
47539;SDS011;33280;52.152;21.052;2023-08-08T07:45:23;3.37;;;1.63;;
47539;SDS011;33280;52.152;21.052;2023-08-08T07:47:58;5.70;;;1.90;;
47539;SDS011;33280;52.152;21.052;2023-08-08T07:50:29;3.07;;;1.60;;
47539;SDS011;33280;52.152;21.052;2023-08-08T07:53:00;5.73;;;1.70;;
47539;SDS011;33280;52.152;21.052;2023-08-08T07:55:27;8.33;;;1.60;;
47539;SDS011;33280;52.152;21.052;2023-08-08T07:57:57;5.73;;;2.00;;
47539;SDS011;33280;52.152;21.052;2023-08-08T08:00:28;6.43;;;1.80;;
47539;SDS011;33280;52.152;21.052;2023-08-08T08:03:05;3.87;;;1.80;;
47539;SDS011;33280;52.152;21.052;2023-08-08T08:05:56;4.03;;;1.67;;
47539;SDS011;33280;52.152;21.052;2023-08-08T08:08:36;5.23;;;1.80;;
47539;SDS011;33280;52.152;21.052;2023-08-08T08:11:17;6.30;;;1.50;;
47539;SDS011;33280;52.152;21.052;2023-08-08T08:14:11;3.77;;;1.60;;
47539;SDS011;33280;52.152;21.052;2023-08-08T08:16:53;3.53;;;1.70;;
47539;SDS011;33280;52.152;21.052;2023-08-08T08:19:33;3.93;;;1.50;;
47539;SDS011;33280;52.152;21.052;2023-08-08T08:22:11;3.40;;;1.60;;
47539;SDS011;33280;52.152;21.052;2023-08-08T08:25:05;5.70;;;1.80;;
47539;SDS011;33280;52.152;21.052;2023-08-08T08:27:52;3.13;;;1.63;;
47539;SDS011;33280;52.152;21.052;2023-08-08T08:30:27;3.73;;;1.70;;
47539;SDS011;33280;52.152;21.052;2023-08-08T08:33:31;3.73;;;1.40;;
47539;SDS011;33280;52.152;21.052;2023-08-08T08:36:11;5.00;;;1.60;;
47539;SDS011;33280;52.152;21.052;2023-08-08T08:39:03;3.57;;;1.50;;
47539;SDS011;33280;52.152;21.052;2023-08-08T08:44:45;5.07;;;1.60;;
47539;SDS011;33280;52.152;21.052;2023-08-08T08:47:33;5.10;;;1.63;;
47539;SDS011;33280;52.152;21.052;2023-08-08T08:50:29;4.57;;;1.47;;
47539;SDS011;33280;52.152;21.052;2023-08-08T08:53:36;6.57;;;1.70;;
47539;SDS011;33280;52.152;21.052;2023-08-08T08:56:32;2.83;;;1.20;;
47539;SDS011;33280;52.152;21.052;2023-08-08T08:59:12;7.40;;;1.60;;
47539;SDS011;33280;52.152;21.052;2023-08-08T09:02:03;5.33;;;1.40;;
47539;SDS011;33280;52.152;21.052;2023-08-08T09:05:00;4.93;;;1.67;;
47539;SDS011;33280;52.152;21.052;2023-08-08T09:08:10;5.53;;;1.47;;
47539;SDS011;33280;52.152;21.052;2023-08-08T09:10:47;5.10;;;1.50;;
47539;SDS011;33280;52.152;21.052;2023-08-08T09:13:37;4.47;;;1.30;;
47539;SDS011;33280;52.152;21.052;2023-08-08T09:16:21;5.20;;;1.60;;
47539;SDS011;33280;52.152;21.052;2023-08-08T09:19:05;3.50;;;1.50;;
47539;SDS011;33280;52.152;21.052;2023-08-08T09:22:02;3.67;;;1.57;;
47539;SDS011;33280;52.152;21.052;2023-08-08T09:24:54;3.73;;;1.53;;
47539;SDS011;33280;52.152;21.052;2023-08-08T09:27:57;3.30;;;1.63;;
47539;SDS011;33280;52.152;21.052;2023-08-08T09:30:42;3.93;;;1.60;;
47539;SDS011;33280;52.152;21.052;2023-08-08T09:34:01;4.23;;;1.50;;
47539;SDS011;33280;52.152;21.052;2023-08-08T09:36:40;5.20;;;1.50;;
47539;SDS011;33280;52.152;21.052;2023-08-08T09:45:53;5.03;;;1.47;;
47539;SDS011;33280;52.152;21.052;2023-08-08T09:49:02;2.00;;;1.30;;
47539;SDS011;33280;52.152;21.052;2023-08-08T09:51:58;3.17;;;1.20;;
47539;SDS011;33280;52.152;21.052;2023-08-08T09:54:53;3.57;;;1.30;;
47539;SDS011;33280;52.152;21.052;2023-08-08T09:57:55;4.43;;;1.30;;
47539;SDS011;33280;52.152;21.052;2023-08-08T10:00:43;4.80;;;1.70;;
47539;SDS011;33280;52.152;21.052;2023-08-08T10:03:31;4.30;;;1.47;;
47539;SDS011;33280;52.152;21.052;2023-08-08T10:06:13;4.67;;;1.33;;
47539;SDS011;33280;52.152;21.052;2023-08-08T10:08:58;6.60;;;1.33;;
47539;SDS011;33280;52.152;21.052;2023-08-08T10:11:35;8.87;;;1.70;;
47539;SDS011;33280;52.152;21.052;2023-08-08T10:14:47;3.73;;;1.30;;
47539;SDS011;33280;52.152;21.052;2023-08-08T10:17:37;5.13;;;1.50;;
47539;SDS011;33280;52.152;21.052;2023-08-08T10:20:21;4.00;;;1.27;;
47539;SDS011;33280;52.152;21.052;2023-08-08T10:22:56;5.73;;;1.20;;
47539;SDS011;33280;52.152;21.052;2023-08-08T10:25:36;3.70;;;1.20;;
47539;SDS011;33280;52.152;21.052;2023-08-08T10:28:18;5.77;;;1.03;;
47539;SDS011;33280;52.152;21.052;2023-08-08T10:31:01;3.67;;;1.43;;
47539;SDS011;33280;52.152;21.052;2023-08-08T10:33:45;5.60;;;1.50;;
47539;SDS011;33280;52.152;21.052;2023-08-08T10:36:21;4.73;;;1.20;;
47539;SDS011;33280;52.152;21.052;2023-08-08T10:38:57;2.87;;;1.20;;
47539;SDS011;33280;52.152;21.052;2023-08-08T10:41:31;3.83;;;1.10;;
47539;SDS011;33280;52.152;21.052;2023-08-08T10:44:08;2.37;;;1.10;;
47539;SDS011;33280;52.152;21.052;2023-08-08T10:46:47;3.43;;;1.03;;
47539;SDS011;33280;52.152;21.052;2023-08-08T10:49:35;2.83;;;1.10;;
47539;SDS011;33280;52.152;21.052;2023-08-08T10:52:13;2.93;;;1.30;;
47539;SDS011;33280;52.152;21.052;2023-08-08T10:58:05;3.60;;;1.20;;
47539;SDS011;33280;52.152;21.052;2023-08-08T11:00:50;3.70;;;1.30;;
47539;SDS011;33280;52.152;21.052;2023-08-08T11:03:45;2.93;;;0.90;;
47539;SDS011;33280;52.152;21.052;2023-08-08T11:06:30;3.97;;;1.00;;
47539;SDS011;33280;52.152;21.052;2023-08-08T11:09:32;3.40;;;1.20;;
47539;SDS011;33280;52.152;21.052;2023-08-08T11:12:14;2.33;;;1.00;;
47539;SDS011;33280;52.152;21.052;2023-08-08T11:15:04;3.57;;;1.20;;
47539;SDS011;33280;52.152;21.052;2023-08-08T11:17:51;4.77;;;1.10;;
47539;SDS011;33280;52.152;21.052;2023-08-08T11:20:31;4.60;;;1.20;;
47539;SDS011;33280;52.152;21.052;2023-08-08T11:23:08;5.03;;;1.20;;
47539;SDS011;33280;52.152;21.052;2023-08-08T11:25:45;2.50;;;1.20;;
47539;SDS011;33280;52.152;21.052;2023-08-08T11:28:24;2.17;;;1.13;;
47539;SDS011;33280;52.152;21.052;2023-08-08T11:30:58;3.27;;;1.00;;
47539;SDS011;33280;52.152;21.052;2023-08-08T11:33:31;2.93;;;0.90;;
47539;SDS011;33280;52.152;21.052;2023-08-08T11:36:34;4.83;;;1.00;;
47539;SDS011;33280;52.152;21.052;2023-08-08T11:39:27;3.10;;;1.20;;
47539;SDS011;33280;52.152;21.052;2023-08-08T11:42:04;4.37;;;1.40;;
47539;SDS011;33280;52.152;21.052;2023-08-08T11:44:44;4.77;;;1.27;;
47539;SDS011;33280;52.152;21.052;2023-08-08T11:47:30;1.90;;;0.90;;
47539;SDS011;33280;52.152;21.052;2023-08-08T11:50:04;1.43;;;0.87;;
47539;SDS011;33280;52.152;21.052;2023-08-08T11:52:40;1.43;;;0.90;;
47539;SDS011;33280;52.152;21.052;2023-08-08T11:55:15;2.50;;;0.80;;
47539;SDS011;33280;52.152;21.052;2023-08-08T11:57:49;1.40;;;0.90;;
47539;SDS011;33280;52.152;21.052;2023-08-08T12:00:26;2.47;;;1.00;;
47539;SDS011;33280;52.152;21.052;2023-08-08T12:03:07;1.60;;;0.85;;
47539;SDS011;33280;52.152;21.052;2023-08-08T12:05:42;2.38;;;0.82;;
47539;SDS011;33280;52.152;21.052;2023-08-08T12:08:22;3.05;;;1.30;;
47539;SDS011;33280;52.152;21.052;2023-08-08T12:11:09;3.15;;;0.95;;
47539;SDS011;33280;52.152;21.052;2023-08-08T12:13:59;2.43;;;1.03;;
47539;SDS011;33280;52.152;21.052;2023-08-08T12:16:49;2.00;;;1.00;;
47539;SDS011;33280;52.152;21.052;2023-08-08T12:19:51;4.20;;;1.20;;
47539;SDS011;33280;52.152;21.052;2023-08-08T12:22:50;1.75;;;1.10;;
47539;SDS011;33280;52.152;21.052;2023-08-08T12:26:03;3.22;;;0.85;;
47539;SDS011;33280;52.152;21.052;2023-08-08T12:28:47;3.72;;;1.08;;
47539;SDS011;33280;52.152;21.052;2023-08-08T12:31:30;1.50;;;0.93;;
47539;SDS011;33280;52.152;21.052;2023-08-08T12:34:06;1.38;;;0.70;;
47539;SDS011;33280;52.152;21.052;2023-08-08T12:40:13;2.78;;;1.00;;
47539;SDS011;33280;52.152;21.052;2023-08-08T12:42:59;2.57;;;0.90;;
47539;SDS011;33280;52.152;21.052;2023-08-08T12:49:11;1.57;;;0.90;;
47539;SDS011;33280;52.152;21.052;2023-08-08T12:51:42;1.70;;;0.88;;
47539;SDS011;33280;52.152;21.052;2023-08-08T12:54:20;1.60;;;0.90;;
47539;SDS011;33280;52.152;21.052;2023-08-08T12:57:20;3.77;;;1.33;;
47539;SDS011;33280;52.152;21.052;2023-08-08T13:00:42;2.13;;;0.90;;
47539;SDS011;33280;52.152;21.052;2023-08-08T13:03:59;2.17;;;1.10;;
47539;SDS011;33280;52.152;21.052;2023-08-08T13:06:48;1.10;;;0.70;;
47539;SDS011;33280;52.152;21.052;2023-08-08T13:09:29;2.03;;;0.90;;
47539;SDS011;33280;52.152;21.052;2023-08-08T13:12:17;2.07;;;1.03;;
47539;SDS011;33280;52.152;21.052;2023-08-08T13:14:59;1.10;;;0.90;;
47539;SDS011;33280;52.152;21.052;2023-08-08T13:17:40;2.50;;;1.00;;
47539;SDS011;33280;52.152;21.052;2023-08-08T13:24:07;1.70;;;0.93;;
47539;SDS011;33280;52.152;21.052;2023-08-08T13:26:59;1.87;;;0.90;;
47539;SDS011;33280;52.152;21.052;2023-08-08T13:30:06;5.87;;;3.03;;
47539;SDS011;33280;52.152;21.052;2023-08-08T13:32:41;1.73;;;1.00;;
47539;SDS011;33280;52.152;21.052;2023-08-08T13:35:15;1.30;;;0.80;;
47539;SDS011;33280;52.152;21.052;2023-08-08T13:38:14;3.03;;;0.80;;
47539;SDS011;33280;52.152;21.052;2023-08-08T13:41:26;3.67;;;1.17;;
47539;SDS011;33280;52.152;21.052;2023-08-08T13:44:07;1.40;;;1.00;;
47539;SDS011;33280;52.152;21.052;2023-08-08T13:47:15;3.60;;;0.90;;
47539;SDS011;33280;52.152;21.052;2023-08-08T13:54:19;2.00;;;0.90;;
47539;SDS011;33280;52.152;21.052;2023-08-08T13:57:23;1.70;;;1.20;;
47539;SDS011;33280;52.152;21.052;2023-08-08T14:00:25;3.43;;;1.07;;
47539;SDS011;33280;52.152;21.052;2023-08-08T14:03:14;4.03;;;1.30;;
47539;SDS011;33280;52.152;21.052;2023-08-08T14:06:17;2.10;;;1.20;;
47539;SDS011;33280;52.152;21.052;2023-08-08T14:09:07;2.17;;;1.03;;
47539;SDS011;33280;52.152;21.052;2023-08-08T14:11:50;4.83;;;1.00;;
47539;SDS011;33280;52.152;21.052;2023-08-08T14:14:47;2.27;;;0.90;;
47539;SDS011;33280;52.152;21.052;2023-08-08T14:18:02;1.80;;;0.97;;
47539;SDS011;33280;52.152;21.052;2023-08-08T14:20:54;2.53;;;1.07;;
47539;SDS011;33280;52.152;21.052;2023-08-08T14:23:38;2.70;;;0.93;;
47539;SDS011;33280;52.152;21.052;2023-08-08T14:26:35;4.43;;;1.10;;
47539;SDS011;33280;52.152;21.052;2023-08-08T14:29:26;1.83;;;1.07;;
47539;SDS011;33280;52.152;21.052;2023-08-08T14:32:56;4.03;;;1.00;;
47539;SDS011;33280;52.152;21.052;2023-08-08T14:35:57;2.73;;;0.87;;
47539;SDS011;33280;52.152;21.052;2023-08-08T14:42:45;2.47;;;1.08;;
47539;SDS011;33280;52.152;21.052;2023-08-08T14:45:40;1.70;;;1.10;;
47539;SDS011;33280;52.152;21.052;2023-08-08T14:48:53;1.92;;;1.10;;
47539;SDS011;33280;52.152;21.052;2023-08-08T14:51:59;4.35;;;1.20;;
47539;SDS011;33280;52.152;21.052;2023-08-08T14:54:38;2.30;;;1.20;;
47539;SDS011;33280;52.152;21.052;2023-08-08T14:57:13;4.40;;;1.05;;
47539;SDS011;33280;52.152;21.052;2023-08-08T15:00:01;2.05;;;0.98;;
47539;SDS011;33280;52.152;21.052;2023-08-08T15:02:42;2.88;;;1.00;;
47539;SDS011;33280;52.152;21.052;2023-08-08T15:05:42;2.03;;;1.15;;
47539;SDS011;33280;52.152;21.052;2023-08-08T15:09:06;2.92;;;1.20;;
47539;SDS011;33280;52.152;21.052;2023-08-08T15:15:45;2.10;;;1.10;;
47539;SDS011;33280;52.152;21.052;2023-08-08T15:18:51;2.75;;;1.10;;
47539;SDS011;33280;52.152;21.052;2023-08-08T15:21:43;1.63;;;1.08;;
47539;SDS011;33280;52.152;21.052;2023-08-08T15:24:57;2.45;;;1.08;;
47539;SDS011;33280;52.152;21.052;2023-08-08T15:27:50;2.30;;;0.90;;
47539;SDS011;33280;52.152;21.052;2023-08-08T15:31:03;2.20;;;0.90;;
47539;SDS011;33280;52.152;21.052;2023-08-08T15:34:11;1.48;;;0.93;;
47539;SDS011;33280;52.152;21.052;2023-08-08T15:37:06;2.25;;;0.93;;
47539;SDS011;33280;52.152;21.052;2023-08-08T15:40:17;2.40;;;0.95;;
47539;SDS011;33280;52.152;21.052;2023-08-08T15:42:58;1.77;;;1.08;;
47539;SDS011;33280;52.152;21.052;2023-08-08T15:45:39;2.75;;;1.00;;
47539;SDS011;33280;52.152;21.052;2023-08-08T15:48:41;2.25;;;0.90;;
47539;SDS011;33280;52.152;21.052;2023-08-08T15:51:14;2.73;;;1.10;;
47539;SDS011;33280;52.152;21.052;2023-08-08T15:54:01;1.40;;;1.00;;
47539;SDS011;33280;52.152;21.052;2023-08-08T15:57:14;2.67;;;1.00;;
47539;SDS011;33280;52.152;21.052;2023-08-08T16:00:01;2.50;;;1.07;;
47539;SDS011;33280;52.152;21.052;2023-08-08T16:02:35;2.27;;;1.00;;
47539;SDS011;33280;52.152;21.052;2023-08-08T16:05:14;1.93;;;1.00;;
47539;SDS011;33280;52.152;21.052;2023-08-08T16:08:19;4.67;;;1.00;;
47539;SDS011;33280;52.152;21.052;2023-08-08T16:11:10;3.23;;;0.90;;
47539;SDS011;33280;52.152;21.052;2023-08-08T16:13:50;3.63;;;1.03;;
47539;SDS011;33280;52.152;21.052;2023-08-08T16:16:33;2.40;;;1.20;;
47539;SDS011;33280;52.152;21.052;2023-08-08T16:19:05;1.33;;;0.90;;
47539;SDS011;33280;52.152;21.052;2023-08-08T16:21:42;1.30;;;1.00;;
47539;SDS011;33280;52.152;21.052;2023-08-08T16:24:15;1.50;;;0.90;;
47539;SDS011;33280;52.152;21.052;2023-08-08T16:26:49;2.63;;;0.90;;
47539;SDS011;33280;52.152;21.052;2023-08-08T16:29:31;2.40;;;1.17;;
47539;SDS011;33280;52.152;21.052;2023-08-08T16:32:22;3.30;;;1.00;;
47539;SDS011;33280;52.152;21.052;2023-08-08T16:35:03;2.70;;;1.00;;
47539;SDS011;33280;52.152;21.052;2023-08-08T16:37:31;5.40;;;1.10;;
47539;SDS011;33280;52.152;21.052;2023-08-08T16:39:58;2.07;;;1.00;;
47539;SDS011;33280;52.152;21.052;2023-08-08T16:42:28;2.13;;;1.00;;
47539;SDS011;33280;52.152;21.052;2023-08-08T16:44:56;1.55;;;1.00;;
47539;SDS011;33280;52.152;21.052;2023-08-08T16:47:27;2.80;;;0.90;;
47539;SDS011;33280;52.152;21.052;2023-08-08T16:49:57;2.37;;;0.80;;
47539;SDS011;33280;52.152;21.052;2023-08-08T16:52:39;2.00;;;1.00;;
47539;SDS011;33280;52.152;21.052;2023-08-08T16:55:10;1.53;;;1.00;;
47539;SDS011;33280;52.152;21.052;2023-08-08T16:57:50;1.40;;;1.00;;
47539;SDS011;33280;52.152;21.052;2023-08-08T17:00:25;4.00;;;1.10;;
47539;SDS011;33280;52.152;21.052;2023-08-08T17:02:55;3.63;;;0.90;;
47539;SDS011;33280;52.152;21.052;2023-08-08T17:05:22;2.40;;;1.00;;
47539;SDS011;33280;52.152;21.052;2023-08-08T17:07:51;4.60;;;1.30;;
47539;SDS011;33280;52.152;21.052;2023-08-08T17:10:20;2.80;;;1.00;;
47539;SDS011;33280;52.152;21.052;2023-08-08T17:12:49;1.70;;;1.00;;
47539;SDS011;33280;52.152;21.052;2023-08-08T17:15:16;2.20;;;1.10;;
47539;SDS011;33280;52.152;21.052;2023-08-08T17:17:49;2.70;;;1.17;;
47539;SDS011;33280;52.152;21.052;2023-08-08T17:20:22;4.13;;;1.30;;
47539;SDS011;33280;52.152;21.052;2023-08-08T17:22:50;3.50;;;1.10;;
47539;SDS011;33280;52.152;21.052;2023-08-08T17:25:23;1.87;;;0.90;;
47539;SDS011;33280;52.152;21.052;2023-08-08T17:27:57;2.10;;;1.10;;
47539;SDS011;33280;52.152;21.052;2023-08-08T17:30:25;2.37;;;1.00;;
47539;SDS011;33280;52.152;21.052;2023-08-08T17:32:56;3.73;;;1.10;;
47539;SDS011;33280;52.152;21.052;2023-08-08T17:35:25;4.50;;;1.10;;
47539;SDS011;33280;52.152;21.052;2023-08-08T17:37:54;2.33;;;1.00;;
47539;SDS011;33280;52.152;21.052;2023-08-08T17:40:25;1.80;;;1.10;;
47539;SDS011;33280;52.152;21.052;2023-08-08T17:42:55;2.43;;;0.83;;
47539;SDS011;33280;52.152;21.052;2023-08-08T17:45:23;2.23;;;1.30;;
47539;SDS011;33280;52.152;21.052;2023-08-08T17:47:50;1.97;;;1.03;;
47539;SDS011;33280;52.152;21.052;2023-08-08T17:50:18;3.20;;;1.30;;
47539;SDS011;33280;52.152;21.052;2023-08-08T17:57:10;3.03;;;1.23;;
47539;SDS011;33280;52.152;21.052;2023-08-08T18:00:52;1.87;;;1.10;;
47539;SDS011;33280;52.152;21.052;2023-08-08T18:03:37;3.17;;;1.43;;
47539;SDS011;33280;52.152;21.052;2023-08-08T18:07:10;2.17;;;1.20;;
47539;SDS011;33280;52.152;21.052;2023-08-08T18:10:26;2.10;;;1.10;;
47539;SDS011;33280;52.152;21.052;2023-08-08T18:13:30;3.13;;;1.30;;
47539;SDS011;33280;52.152;21.052;2023-08-08T18:17:02;2.50;;;1.33;;
47539;SDS011;33280;52.152;21.052;2023-08-08T18:20:38;2.17;;;1.00;;
47539;SDS011;33280;52.152;21.052;2023-08-08T18:24:19;3.27;;;1.30;;
47539;SDS011;33280;52.152;21.052;2023-08-08T18:28:08;1.73;;;1.10;;